sensor_id;sensor_type;location;lat;lon;timestamp;temperature;humidity
22288;DHT22;11312;51.464;6.968;2024-02-23T00:00:34;5.90;99.90
22288;DHT22;11312;51.464;6.968;2024-02-23T00:03:00;5.90;99.90
22288;DHT22;11312;51.464;6.968;2024-02-23T00:05:25;5.90;99.90
22288;DHT22;11312;51.464;6.968;2024-02-23T00:07:51;5.90;99.90
22288;DHT22;11312;51.464;6.968;2024-02-23T00:10:16;5.90;99.90
22288;DHT22;11312;51.464;6.968;2024-02-23T00:12:42;5.70;99.90
22288;DHT22;11312;51.464;6.968;2024-02-23T00:15:09;5.80;99.90
22288;DHT22;11312;51.464;6.968;2024-02-23T00:17:35;5.80;99.90
22288;DHT22;11312;51.464;6.968;2024-02-23T00:20:00;5.90;99.90
22288;DHT22;11312;51.464;6.968;2024-02-23T00:22:26;5.70;99.90
22288;DHT22;11312;51.464;6.968;2024-02-23T00:24:52;5.70;99.90
22288;DHT22;11312;51.464;6.968;2024-02-23T00:27:17;5.60;99.90
22288;DHT22;11312;51.464;6.968;2024-02-23T00:29:43;5.70;99.90
22288;DHT22;11312;51.464;6.968;2024-02-23T00:32:09;5.70;99.90
22288;DHT22;11312;51.464;6.968;2024-02-23T00:34:35;5.70;99.90
22288;DHT22;11312;51.464;6.968;2024-02-23T00:37:01;5.70;99.90
22288;DHT22;11312;51.464;6.968;2024-02-23T00:39:27;5.70;99.90
22288;DHT22;11312;51.464;6.968;2024-02-23T00:41:53;5.70;99.90
22288;DHT22;11312;51.464;6.968;2024-02-23T00:44:18;5.80;99.90
22288;DHT22;11312;51.464;6.968;2024-02-23T00:46:44;5.70;99.90
22288;DHT22;11312;51.464;6.968;2024-02-23T00:49:10;5.80;99.90
22288;DHT22;11312;51.464;6.968;2024-02-23T00:51:35;5.80;99.90
22288;DHT22;11312;51.464;6.968;2024-02-23T00:54:02;5.80;99.90
22288;DHT22;11312;51.464;6.968;2024-02-23T00:56:28;5.80;99.90
22288;DHT22;11312;51.464;6.968;2024-02-23T00:58:53;5.80;99.90
22288;DHT22;11312;51.464;6.968;2024-02-23T01:01:19;5.90;99.90
22288;DHT22;11312;51.464;6.968;2024-02-23T01:03:44;5.90;99.90
22288;DHT22;11312;51.464;6.968;2024-02-23T01:06:10;5.90;99.90
22288;DHT22;11312;51.464;6.968;2024-02-23T01:08:35;5.90;99.90
22288;DHT22;11312;51.464;6.968;2024-02-23T01:11:01;5.90;99.90
22288;DHT22;11312;51.464;6.968;2024-02-23T01:13:27;5.90;99.90
22288;DHT22;11312;51.464;6.968;2024-02-23T01:15:53;5.80;99.90
22288;DHT22;11312;51.464;6.968;2024-02-23T01:18:19;5.80;99.90
22288;DHT22;11312;51.464;6.968;2024-02-23T01:20:45;5.70;99.90
22288;DHT22;11312;51.464;6.968;2024-02-23T01:23:11;5.80;99.90
22288;DHT22;11312;51.464;6.968;2024-02-23T01:25:36;5.80;99.90
22288;DHT22;11312;51.464;6.968;2024-02-23T01:28:03;5.80;37.20
22288;DHT22;11312;51.464;6.968;2024-02-23T01:30:29;5.80;7.10
22288;DHT22;11312;51.464;6.968;2024-02-23T01:32:54;5.90;1.00
22288;DHT22;11312;51.464;6.968;2024-02-23T01:35:20;5.90;1.00
22288;DHT22;11312;51.464;6.968;2024-02-23T01:37:45;5.90;1.00
22288;DHT22;11312;51.464;6.968;2024-02-23T01:40:11;5.90;1.00
22288;DHT22;11312;51.464;6.968;2024-02-23T01:42:38;5.90;1.00
22288;DHT22;11312;51.464;6.968;2024-02-23T01:45:04;6.00;1.00
22288;DHT22;11312;51.464;6.968;2024-02-23T01:47:30;5.90;1.00
22288;DHT22;11312;51.464;6.968;2024-02-23T01:49:59;5.90;1.00
22288;DHT22;11312;51.464;6.968;2024-02-23T01:52:26;5.90;1.00
22288;DHT22;11312;51.464;6.968;2024-02-23T01:54:52;5.90;1.00
22288;DHT22;11312;51.464;6.968;2024-02-23T01:57:19;5.90;1.00
22288;DHT22;11312;51.464;6.968;2024-02-23T01:59:46;5.90;1.00
22288;DHT22;11312;51.464;6.968;2024-02-23T02:02:12;5.90;1.00
22288;DHT22;11312;51.464;6.968;2024-02-23T02:04:38;5.90;1.00
22288;DHT22;11312;51.464;6.968;2024-02-23T02:07:04;5.90;1.00
22288;DHT22;11312;51.464;6.968;2024-02-23T02:09:30;5.90;1.00
22288;DHT22;11312;51.464;6.968;2024-02-23T02:11:56;6.00;1.00
22288;DHT22;11312;51.464;6.968;2024-02-23T02:14:22;6.00;1.00
22288;DHT22;11312;51.464;6.968;2024-02-23T02:16:47;6.00;1.00
22288;DHT22;11312;51.464;6.968;2024-02-23T02:19:14;6.00;1.00
22288;DHT22;11312;51.464;6.968;2024-02-23T02:21:40;5.90;1.00
22288;DHT22;11312;51.464;6.968;2024-02-23T02:24:06;6.00;1.00
22288;DHT22;11312;51.464;6.968;2024-02-23T02:26:32;6.00;1.00
22288;DHT22;11312;51.464;6.968;2024-02-23T02:28:58;6.10;1.00
22288;DHT22;11312;51.464;6.968;2024-02-23T02:31:24;6.00;1.00
22288;DHT22;11312;51.464;6.968;2024-02-23T02:33:50;6.00;1.00
22288;DHT22;11312;51.464;6.968;2024-02-23T02:36:15;6.00;1.00
22288;DHT22;11312;51.464;6.968;2024-02-23T02:38:41;5.90;1.00
22288;DHT22;11312;51.464;6.968;2024-02-23T02:41:06;5.90;1.00
22288;DHT22;11312;51.464;6.968;2024-02-23T02:43:32;5.90;1.00
22288;DHT22;11312;51.464;6.968;2024-02-23T02:45:58;5.90;1.00
22288;DHT22;11312;51.464;6.968;2024-02-23T02:48:24;5.90;1.00
22288;DHT22;11312;51.464;6.968;2024-02-23T02:50:50;5.80;1.00
22288;DHT22;11312;51.464;6.968;2024-02-23T02:53:17;5.70;1.00
22288;DHT22;11312;51.464;6.968;2024-02-23T02:55:43;5.80;1.00
22288;DHT22;11312;51.464;6.968;2024-02-23T02:58:11;5.80;1.00
22288;DHT22;11312;51.464;6.968;2024-02-23T03:00:36;5.80;1.00
22288;DHT22;11312;51.464;6.968;2024-02-23T03:03:02;5.70;1.00
22288;DHT22;11312;51.464;6.968;2024-02-23T03:05:28;5.70;1.00
22288;DHT22;11312;51.464;6.968;2024-02-23T03:07:53;5.70;1.00
22288;DHT22;11312;51.464;6.968;2024-02-23T03:10:19;5.70;1.00
22288;DHT22;11312;51.464;6.968;2024-02-23T03:12:45;5.60;1.00
22288;DHT22;11312;51.464;6.968;2024-02-23T03:15:11;5.60;1.00
22288;DHT22;11312;51.464;6.968;2024-02-23T03:17:37;5.50;1.00
22288;DHT22;11312;51.464;6.968;2024-02-23T03:20:03;5.50;1.00
22288;DHT22;11312;51.464;6.968;2024-02-23T03:22:36;5.50;1.00
22288;DHT22;11312;51.464;6.968;2024-02-23T03:25:03;5.60;1.00
22288;DHT22;11312;51.464;6.968;2024-02-23T03:27:37;5.60;1.00
22288;DHT22;11312;51.464;6.968;2024-02-23T03:30:05;5.60;1.00
22288;DHT22;11312;51.464;6.968;2024-02-23T03:32:31;5.70;1.00
22288;DHT22;11312;51.464;6.968;2024-02-23T03:35:03;5.80;1.00
22288;DHT22;11312;51.464;6.968;2024-02-23T03:37:29;5.70;99.90
22288;DHT22;11312;51.464;6.968;2024-02-23T03:39:55;5.80;1.00
22288;DHT22;11312;51.464;6.968;2024-02-23T03:42:21;5.80;99.90
22288;DHT22;11312;51.464;6.968;2024-02-23T03:44:46;5.80;99.90
22288;DHT22;11312;51.464;6.968;2024-02-23T03:47:12;5.80;99.90
22288;DHT22;11312;51.464;6.968;2024-02-23T03:49:38;5.80;99.90
22288;DHT22;11312;51.464;6.968;2024-02-23T03:52:04;5.80;99.90
22288;DHT22;11312;51.464;6.968;2024-02-23T03:54:30;5.80;99.90
22288;DHT22;11312;51.464;6.968;2024-02-23T03:56:56;5.80;99.90
22288;DHT22;11312;51.464;6.968;2024-02-23T03:59:22;5.80;99.90
22288;DHT22;11312;51.464;6.968;2024-02-23T04:01:48;5.80;99.90
22288;DHT22;11312;51.464;6.968;2024-02-23T04:04:13;5.80;99.90
22288;DHT22;11312;51.464;6.968;2024-02-23T04:06:39;5.80;99.90
22288;DHT22;11312;51.464;6.968;2024-02-23T04:09:05;5.80;99.90
22288;DHT22;11312;51.464;6.968;2024-02-23T04:11:31;5.90;99.90
22288;DHT22;11312;51.464;6.968;2024-02-23T04:13:57;5.90;99.90
22288;DHT22;11312;51.464;6.968;2024-02-23T04:16:26;5.90;99.90
22288;DHT22;11312;51.464;6.968;2024-02-23T04:18:53;5.80;99.90
22288;DHT22;11312;51.464;6.968;2024-02-23T04:21:19;5.80;99.90
22288;DHT22;11312;51.464;6.968;2024-02-23T04:23:45;5.90;99.90
22288;DHT22;11312;51.464;6.968;2024-02-23T04:26:11;5.80;99.90
22288;DHT22;11312;51.464;6.968;2024-02-23T04:28:40;5.80;99.90
22288;DHT22;11312;51.464;6.968;2024-02-23T04:31:07;5.90;99.90
22288;DHT22;11312;51.464;6.968;2024-02-23T04:33:34;5.90;99.90
22288;DHT22;11312;51.464;6.968;2024-02-23T04:36:00;5.90;97.70
22288;DHT22;11312;51.464;6.968;2024-02-23T04:38:26;5.90;99.90
22288;DHT22;11312;51.464;6.968;2024-02-23T04:40:52;5.90;1.00
22288;DHT22;11312;51.464;6.968;2024-02-23T04:43:17;5.90;28.90
22288;DHT22;11312;51.464;6.968;2024-02-23T04:45:43;6.00;1.00
22288;DHT22;11312;51.464;6.968;2024-02-23T04:48:08;5.90;1.00
22288;DHT22;11312;51.464;6.968;2024-02-23T04:50:34;5.90;1.00
22288;DHT22;11312;51.464;6.968;2024-02-23T04:53:00;5.90;1.00
22288;DHT22;11312;51.464;6.968;2024-02-23T04:55:25;5.90;1.00
22288;DHT22;11312;51.464;6.968;2024-02-23T04:57:51;5.90;1.00
22288;DHT22;11312;51.464;6.968;2024-02-23T05:00:16;5.90;1.00
22288;DHT22;11312;51.464;6.968;2024-02-23T05:02:42;5.90;1.00
22288;DHT22;11312;51.464;6.968;2024-02-23T05:05:08;6.00;1.00
22288;DHT22;11312;51.464;6.968;2024-02-23T05:07:34;6.00;1.00
22288;DHT22;11312;51.464;6.968;2024-02-23T05:10:00;6.00;1.00
22288;DHT22;11312;51.464;6.968;2024-02-23T05:12:26;5.90;1.00
22288;DHT22;11312;51.464;6.968;2024-02-23T05:14:51;5.90;1.00
22288;DHT22;11312;51.464;6.968;2024-02-23T05:17:17;6.00;1.00
22288;DHT22;11312;51.464;6.968;2024-02-23T05:19:43;6.00;1.00
22288;DHT22;11312;51.464;6.968;2024-02-23T05:22:08;6.00;1.00
22288;DHT22;11312;51.464;6.968;2024-02-23T05:24:34;6.00;1.00
22288;DHT22;11312;51.464;6.968;2024-02-23T05:26:59;6.00;1.00
22288;DHT22;11312;51.464;6.968;2024-02-23T05:29:27;6.10;1.00
22288;DHT22;11312;51.464;6.968;2024-02-23T05:31:54;6.00;1.00
22288;DHT22;11312;51.464;6.968;2024-02-23T05:34:20;6.00;1.00
22288;DHT22;11312;51.464;6.968;2024-02-23T05:36:47;6.10;1.00
22288;DHT22;11312;51.464;6.968;2024-02-23T05:39:13;6.00;1.00
22288;DHT22;11312;51.464;6.968;2024-02-23T05:41:41;6.10;1.00
22288;DHT22;11312;51.464;6.968;2024-02-23T05:44:07;6.00;1.00
22288;DHT22;11312;51.464;6.968;2024-02-23T05:46:34;6.10;1.00
22288;DHT22;11312;51.464;6.968;2024-02-23T05:49:00;6.10;1.00
22288;DHT22;11312;51.464;6.968;2024-02-23T05:51:28;6.10;1.00
22288;DHT22;11312;51.464;6.968;2024-02-23T05:53:54;6.00;1.00
22288;DHT22;11312;51.464;6.968;2024-02-23T05:56:21;6.00;1.00
22288;DHT22;11312;51.464;6.968;2024-02-23T05:58:47;6.00;1.00
22288;DHT22;11312;51.464;6.968;2024-02-23T06:01:12;6.00;1.00
22288;DHT22;11312;51.464;6.968;2024-02-23T06:03:38;6.00;1.00
22288;DHT22;11312;51.464;6.968;2024-02-23T06:06:07;5.90;1.00
22288;DHT22;11312;51.464;6.968;2024-02-23T06:08:33;6.00;99.90
22288;DHT22;11312;51.464;6.968;2024-02-23T06:10:59;6.00;1.00
22288;DHT22;11312;51.464;6.968;2024-02-23T06:13:25;6.00;99.90
22288;DHT22;11312;51.464;6.968;2024-02-23T06:15:52;6.00;1.00
22288;DHT22;11312;51.464;6.968;2024-02-23T06:18:17;6.10;99.90
22288;DHT22;11312;51.464;6.968;2024-02-23T06:20:43;6.10;99.90
22288;DHT22;11312;51.464;6.968;2024-02-23T06:23:08;6.60;99.90
22288;DHT22;11312;51.464;6.968;2024-02-23T06:25:34;6.10;99.90
22288;DHT22;11312;51.464;6.968;2024-02-23T06:28:00;6.20;21.20
22288;DHT22;11312;51.464;6.968;2024-02-23T06:30:25;6.10;99.90
22288;DHT22;11312;51.464;6.968;2024-02-23T06:32:51;6.20;99.90
22288;DHT22;11312;51.464;6.968;2024-02-23T06:35:17;6.10;99.90
22288;DHT22;11312;51.464;6.968;2024-02-23T06:37:42;6.10;1.00
22288;DHT22;11312;51.464;6.968;2024-02-23T06:40:08;6.20;1.00
22288;DHT22;11312;51.464;6.968;2024-02-23T06:42:34;6.20;1.00
22288;DHT22;11312;51.464;6.968;2024-02-23T06:44:59;6.20;1.00
22288;DHT22;11312;51.464;6.968;2024-02-23T06:47:26;6.20;18.50
22288;DHT22;11312;51.464;6.968;2024-02-23T06:49:52;6.10;1.00
22288;DHT22;11312;51.464;6.968;2024-02-23T06:52:17;6.10;1.00
22288;DHT22;11312;51.464;6.968;2024-02-23T06:54:43;6.10;1.00
22288;DHT22;11312;51.464;6.968;2024-02-23T06:57:09;6.00;1.00
22288;DHT22;11312;51.464;6.968;2024-02-23T06:59:35;6.10;99.90
22288;DHT22;11312;51.464;6.968;2024-02-23T07:02:01;5.90;99.90
22288;DHT22;11312;51.464;6.968;2024-02-23T07:04:27;5.90;97.50
22288;DHT22;11312;51.464;6.968;2024-02-23T07:06:54;5.90;30.30
22288;DHT22;11312;51.464;6.968;2024-02-23T07:09:21;5.90;99.90
22288;DHT22;11312;51.464;6.968;2024-02-23T07:11:46;5.90;99.90
22288;DHT22;11312;51.464;6.968;2024-02-23T07:14:12;5.90;99.90
22288;DHT22;11312;51.464;6.968;2024-02-23T07:16:39;6.00;1.00
22288;DHT22;11312;51.464;6.968;2024-02-23T07:19:06;6.10;1.00
22288;DHT22;11312;51.464;6.968;2024-02-23T07:21:32;6.30;1.00
22288;DHT22;11312;51.464;6.968;2024-02-23T07:23:59;6.40;1.00
22288;DHT22;11312;51.464;6.968;2024-02-23T07:26:24;6.40;1.00
22288;DHT22;11312;51.464;6.968;2024-02-23T07:28:50;6.40;1.00
22288;DHT22;11312;51.464;6.968;2024-02-23T07:31:15;6.40;1.00
22288;DHT22;11312;51.464;6.968;2024-02-23T07:33:42;6.30;1.00
22288;DHT22;11312;51.464;6.968;2024-02-23T07:36:17;6.30;1.00
22288;DHT22;11312;51.464;6.968;2024-02-23T07:38:42;6.30;1.00
22288;DHT22;11312;51.464;6.968;2024-02-23T07:41:11;6.20;1.00
22288;DHT22;11312;51.464;6.968;2024-02-23T07:43:39;6.30;43.90
22288;DHT22;11312;51.464;6.968;2024-02-23T07:46:06;6.50;1.00
22288;DHT22;11312;51.464;6.968;2024-02-23T07:48:34;6.60;92.30
22288;DHT22;11312;51.464;6.968;2024-02-23T07:51:01;6.70;1.00
22288;DHT22;11312;51.464;6.968;2024-02-23T07:53:27;6.80;1.00
22288;DHT22;11312;51.464;6.968;2024-02-23T07:55:53;6.80;99.90
22288;DHT22;11312;51.464;6.968;2024-02-23T07:58:18;6.80;99.90
22288;DHT22;11312;51.464;6.968;2024-02-23T08:00:44;6.70;1.00
22288;DHT22;11312;51.464;6.968;2024-02-23T08:03:10;6.70;99.90
22288;DHT22;11312;51.464;6.968;2024-02-23T08:05:36;6.70;99.90
22288;DHT22;11312;51.464;6.968;2024-02-23T08:08:02;6.70;1.00
22288;DHT22;11312;51.464;6.968;2024-02-23T08:10:28;6.80;1.00
22288;DHT22;11312;51.464;6.968;2024-02-23T08:12:53;6.90;1.00
22288;DHT22;11312;51.464;6.968;2024-02-23T08:15:19;6.80;1.00
22288;DHT22;11312;51.464;6.968;2024-02-23T08:17:45;6.90;99.90
22288;DHT22;11312;51.464;6.968;2024-02-23T08:20:10;7.30;1.00
22288;DHT22;11312;51.464;6.968;2024-02-23T08:22:36;7.70;1.00
22288;DHT22;11312;51.464;6.968;2024-02-23T08:25:02;8.20;1.00
22288;DHT22;11312;51.464;6.968;2024-02-23T08:27:27;7.80;1.00
22288;DHT22;11312;51.464;6.968;2024-02-23T08:29:53;7.80;63.30
22288;DHT22;11312;51.464;6.968;2024-02-23T08:32:19;7.80;1.00
22288;DHT22;11312;51.464;6.968;2024-02-23T08:34:45;7.80;1.00
22288;DHT22;11312;51.464;6.968;2024-02-23T08:37:12;7.60;1.00
22288;DHT22;11312;51.464;6.968;2024-02-23T08:39:38;7.70;1.00
22288;DHT22;11312;51.464;6.968;2024-02-23T08:42:03;8.00;1.00
22288;DHT22;11312;51.464;6.968;2024-02-23T08:44:29;8.30;1.00
22288;DHT22;11312;51.464;6.968;2024-02-23T08:46:55;8.30;99.90
22288;DHT22;11312;51.464;6.968;2024-02-23T08:49:20;8.20;1.00
22288;DHT22;11312;51.464;6.968;2024-02-23T08:51:46;7.70;1.00
22288;DHT22;11312;51.464;6.968;2024-02-23T08:54:11;7.60;1.00
22288;DHT22;11312;51.464;6.968;2024-02-23T08:56:38;7.50;1.00
22288;DHT22;11312;51.464;6.968;2024-02-23T08:59:08;7.30;1.00
22288;DHT22;11312;51.464;6.968;2024-02-23T09:01:35;7.50;99.90
22288;DHT22;11312;51.464;6.968;2024-02-23T09:04:01;7.50;1.00
22288;DHT22;11312;51.464;6.968;2024-02-23T09:06:26;7.50;38.10
22288;DHT22;11312;51.464;6.968;2024-02-23T09:08:52;8.90;59.80
22288;DHT22;11312;51.464;6.968;2024-02-23T09:11:18;7.90;99.90
22288;DHT22;11312;51.464;6.968;2024-02-23T09:13:43;8.20;1.00
22288;DHT22;11312;51.464;6.968;2024-02-23T09:16:09;9.00;99.90
22288;DHT22;11312;51.464;6.968;2024-02-23T09:18:35;8.60;1.00
22288;DHT22;11312;51.464;6.968;2024-02-23T09:21:01;8.50;1.00
22288;DHT22;11312;51.464;6.968;2024-02-23T09:23:27;8.60;1.00
22288;DHT22;11312;51.464;6.968;2024-02-23T09:25:52;8.30;99.90
22288;DHT22;11312;51.464;6.968;2024-02-23T09:28:18;8.20;34.00
22288;DHT22;11312;51.464;6.968;2024-02-23T09:30:45;8.10;99.90
22288;DHT22;11312;51.464;6.968;2024-02-23T09:33:10;8.10;1.00
22288;DHT22;11312;51.464;6.968;2024-02-23T09:35:36;8.00;1.00
22288;DHT22;11312;51.464;6.968;2024-02-23T09:38:01;8.00;5.40
22288;DHT22;11312;51.464;6.968;2024-02-23T09:40:28;8.00;1.00
22288;DHT22;11312;51.464;6.968;2024-02-23T09:42:57;7.90;99.90
22288;DHT22;11312;51.464;6.968;2024-02-23T09:45:27;8.00;10.60
22288;DHT22;11312;51.464;6.968;2024-02-23T09:47:57;8.00;1.00
22288;DHT22;11312;51.464;6.968;2024-02-23T09:50:23;8.00;1.00
22288;DHT22;11312;51.464;6.968;2024-02-23T09:52:50;7.90;99.90
22288;DHT22;11312;51.464;6.968;2024-02-23T09:55:21;7.90;99.90
22288;DHT22;11312;51.464;6.968;2024-02-23T09:57:49;7.80;99.90
22288;DHT22;11312;51.464;6.968;2024-02-23T10:00:17;7.90;1.00
22288;DHT22;11312;51.464;6.968;2024-02-23T10:02:43;7.90;99.90
22288;DHT22;11312;51.464;6.968;2024-02-23T10:05:10;7.90;1.00
22288;DHT22;11312;51.464;6.968;2024-02-23T10:07:37;7.90;99.90
22288;DHT22;11312;51.464;6.968;2024-02-23T10:10:07;7.60;99.90
22288;DHT22;11312;51.464;6.968;2024-02-23T10:12:34;8.00;99.90
22288;DHT22;11312;51.464;6.968;2024-02-23T10:15:01;8.10;1.00
22288;DHT22;11312;51.464;6.968;2024-02-23T10:17:30;8.10;1.00
22288;DHT22;11312;51.464;6.968;2024-02-23T10:19:55;8.00;99.90
22288;DHT22;11312;51.464;6.968;2024-02-23T10:22:23;8.10;1.00
22288;DHT22;11312;51.464;6.968;2024-02-23T10:24:51;8.20;1.00
22288;DHT22;11312;51.464;6.968;2024-02-23T10:27:17;8.30;49.90
22288;DHT22;11312;51.464;6.968;2024-02-23T10:29:43;8.30;1.00
22288;DHT22;11312;51.464;6.968;2024-02-23T10:32:15;8.30;1.00
22288;DHT22;11312;51.464;6.968;2024-02-23T10:34:42;8.40;1.00
22288;DHT22;11312;51.464;6.968;2024-02-23T10:37:08;8.20;99.90
22288;DHT22;11312;51.464;6.968;2024-02-23T10:39:36;8.30;99.90
22288;DHT22;11312;51.464;6.968;2024-02-23T10:42:04;8.40;1.00
22288;DHT22;11312;51.464;6.968;2024-02-23T10:44:30;8.40;1.00
22288;DHT22;11312;51.464;6.968;2024-02-23T10:46:58;8.60;99.90
22288;DHT22;11312;51.464;6.968;2024-02-23T10:49:25;8.70;99.90
22288;DHT22;11312;51.464;6.968;2024-02-23T10:51:54;8.70;1.00
22288;DHT22;11312;51.464;6.968;2024-02-23T10:54:20;8.70;1.00
22288;DHT22;11312;51.464;6.968;2024-02-23T10:56:48;8.50;1.00
22288;DHT22;11312;51.464;6.968;2024-02-23T10:59:14;8.50;1.00
22288;DHT22;11312;51.464;6.968;2024-02-23T11:01:48;8.50;1.00
22288;DHT22;11312;51.464;6.968;2024-02-23T11:04:16;8.50;18.40
22288;DHT22;11312;51.464;6.968;2024-02-23T11:06:42;8.60;1.00
22288;DHT22;11312;51.464;6.968;2024-02-23T11:09:13;8.60;1.00
22288;DHT22;11312;51.464;6.968;2024-02-23T11:11:39;8.70;99.90
22288;DHT22;11312;51.464;6.968;2024-02-23T11:14:08;8.60;99.90
22288;DHT22;11312;51.464;6.968;2024-02-23T11:16:38;8.60;1.00
22288;DHT22;11312;51.464;6.968;2024-02-23T11:19:06;8.70;1.00
22288;DHT22;11312;51.464;6.968;2024-02-23T11:21:38;8.60;1.00
22288;DHT22;11312;51.464;6.968;2024-02-23T11:24:04;8.60;1.00
22288;DHT22;11312;51.464;6.968;2024-02-23T11:26:31;8.70;1.00
22288;DHT22;11312;51.464;6.968;2024-02-23T11:29:09;8.60;1.00
22288;DHT22;11312;51.464;6.968;2024-02-23T11:31:35;8.60;1.00
22288;DHT22;11312;51.464;6.968;2024-02-23T11:34:01;8.60;1.00
22288;DHT22;11312;51.464;6.968;2024-02-23T11:36:34;8.70;1.00
22288;DHT22;11312;51.464;6.968;2024-02-23T11:39:00;8.60;1.30
22288;DHT22;11312;51.464;6.968;2024-02-23T11:41:27;8.70;1.00
22288;DHT22;11312;51.464;6.968;2024-02-23T11:43:54;8.50;1.00
22288;DHT22;11312;51.464;6.968;2024-02-23T11:46:20;8.60;63.10
22288;DHT22;11312;51.464;6.968;2024-02-23T11:48:46;8.50;1.00
22288;DHT22;11312;51.464;6.968;2024-02-23T11:51:14;8.50;1.00
22288;DHT22;11312;51.464;6.968;2024-02-23T11:53:40;8.50;1.00
22288;DHT22;11312;51.464;6.968;2024-02-23T11:56:07;8.50;1.00
22288;DHT22;11312;51.464;6.968;2024-02-23T11:58:33;8.60;1.00
22288;DHT22;11312;51.464;6.968;2024-02-23T12:01:03;8.60;1.00
22288;DHT22;11312;51.464;6.968;2024-02-23T12:03:31;8.50;1.00
22288;DHT22;11312;51.464;6.968;2024-02-23T12:05:58;8.60;1.00
22288;DHT22;11312;51.464;6.968;2024-02-23T12:08:27;8.60;1.00
22288;DHT22;11312;51.464;6.968;2024-02-23T12:10:54;8.60;1.00
22288;DHT22;11312;51.464;6.968;2024-02-23T12:13:21;8.60;1.00
22288;DHT22;11312;51.464;6.968;2024-02-23T12:15:47;8.60;1.00
22288;DHT22;11312;51.464;6.968;2024-02-23T12:18:13;8.50;1.00
22288;DHT22;11312;51.464;6.968;2024-02-23T12:20:40;8.50;1.00
22288;DHT22;11312;51.464;6.968;2024-02-23T12:23:05;8.60;99.90
22288;DHT22;11312;51.464;6.968;2024-02-23T12:25:33;8.70;1.00
22288;DHT22;11312;51.464;6.968;2024-02-23T12:27:59;8.70;1.00
22288;DHT22;11312;51.464;6.968;2024-02-23T12:30:30;8.80;1.00
22288;DHT22;11312;51.464;6.968;2024-02-23T12:33:23;8.80;14.20
22288;DHT22;11312;51.464;6.968;2024-02-23T12:35:48;8.70;1.00
22288;DHT22;11312;51.464;6.968;2024-02-23T12:38:14;8.80;1.00
22288;DHT22;11312;51.464;6.968;2024-02-23T12:40:40;8.80;99.90
22288;DHT22;11312;51.464;6.968;2024-02-23T12:43:05;10.40;99.90
22288;DHT22;11312;51.464;6.968;2024-02-23T12:45:31;10.50;99.90
22288;DHT22;11312;51.464;6.968;2024-02-23T12:47:57;10.10;1.00
22288;DHT22;11312;51.464;6.968;2024-02-23T12:50:24;9.60;99.90
22288;DHT22;11312;51.464;6.968;2024-02-23T12:52:49;10.20;99.90
22288;DHT22;11312;51.464;6.968;2024-02-23T12:55:15;9.20;1.00
22288;DHT22;11312;51.464;6.968;2024-02-23T12:57:40;9.30;1.00
22288;DHT22;11312;51.464;6.968;2024-02-23T13:00:06;8.90;1.00
22288;DHT22;11312;51.464;6.968;2024-02-23T13:02:33;8.90;1.00
22288;DHT22;11312;51.464;6.968;2024-02-23T13:04:59;8.80;1.00
22288;DHT22;11312;51.464;6.968;2024-02-23T13:07:24;8.80;1.00
22288;DHT22;11312;51.464;6.968;2024-02-23T13:09:50;9.00;95.40
22288;DHT22;11312;51.464;6.968;2024-02-23T13:12:16;8.90;1.00
22288;DHT22;11312;51.464;6.968;2024-02-23T13:14:41;8.90;99.90
22288;DHT22;11312;51.464;6.968;2024-02-23T13:17:07;9.10;1.00
22288;DHT22;11312;51.464;6.968;2024-02-23T13:19:32;8.90;1.00
22288;DHT22;11312;51.464;6.968;2024-02-23T13:21:58;8.80;1.00
22288;DHT22;11312;51.464;6.968;2024-02-23T13:24:26;8.80;1.00
22288;DHT22;11312;51.464;6.968;2024-02-23T13:26:52;8.80;99.90
22288;DHT22;11312;51.464;6.968;2024-02-23T13:29:17;8.70;99.90
22288;DHT22;11312;51.464;6.968;2024-02-23T13:31:43;8.70;1.00
22288;DHT22;11312;51.464;6.968;2024-02-23T13:34:08;8.80;1.00
22288;DHT22;11312;51.464;6.968;2024-02-23T13:36:35;8.80;99.90
22288;DHT22;11312;51.464;6.968;2024-02-23T13:39:00;8.80;99.90
22288;DHT22;11312;51.464;6.968;2024-02-23T13:41:26;8.90;99.90
22288;DHT22;11312;51.464;6.968;2024-02-23T13:43:52;9.00;99.90
22288;DHT22;11312;51.464;6.968;2024-02-23T13:46:17;9.00;99.90
22288;DHT22;11312;51.464;6.968;2024-02-23T13:48:43;9.00;38.10
22288;DHT22;11312;51.464;6.968;2024-02-23T13:51:09;8.90;99.90
22288;DHT22;11312;51.464;6.968;2024-02-23T13:53:35;8.90;1.00
22288;DHT22;11312;51.464;6.968;2024-02-23T13:56:03;8.90;1.00
22288;DHT22;11312;51.464;6.968;2024-02-23T13:58:29;8.90;1.00
22288;DHT22;11312;51.464;6.968;2024-02-23T14:00:54;9.10;1.00
22288;DHT22;11312;51.464;6.968;2024-02-23T14:03:21;9.00;1.00
22288;DHT22;11312;51.464;6.968;2024-02-23T14:05:48;9.10;99.90
22288;DHT22;11312;51.464;6.968;2024-02-23T14:08:14;9.10;47.10
22288;DHT22;11312;51.464;6.968;2024-02-23T14:10:40;9.10;99.90
22288;DHT22;11312;51.464;6.968;2024-02-23T14:13:06;9.10;99.90
22288;DHT22;11312;51.464;6.968;2024-02-23T14:15:32;9.10;1.00
22288;DHT22;11312;51.464;6.968;2024-02-23T14:17:58;9.20;1.00
22288;DHT22;11312;51.464;6.968;2024-02-23T14:20:23;9.20;1.00
22288;DHT22;11312;51.464;6.968;2024-02-23T14:22:49;9.20;1.00
22288;DHT22;11312;51.464;6.968;2024-02-23T14:25:15;9.30;1.00
22288;DHT22;11312;51.464;6.968;2024-02-23T14:27:41;9.30;99.90
22288;DHT22;11312;51.464;6.968;2024-02-23T14:30:08;9.40;99.90
22288;DHT22;11312;51.464;6.968;2024-02-23T14:32:34;9.50;99.90
22288;DHT22;11312;51.464;6.968;2024-02-23T14:35:02;9.50;27.50
22288;DHT22;11312;51.464;6.968;2024-02-23T14:37:29;9.40;1.00
22288;DHT22;11312;51.464;6.968;2024-02-23T14:39:54;9.70;1.00
22288;DHT22;11312;51.464;6.968;2024-02-23T14:42:21;11.00;99.90
22288;DHT22;11312;51.464;6.968;2024-02-23T14:44:47;11.50;1.00
22288;DHT22;11312;51.464;6.968;2024-02-23T14:47:12;11.10;1.00
22288;DHT22;11312;51.464;6.968;2024-02-23T14:49:39;10.60;1.00
22288;DHT22;11312;51.464;6.968;2024-02-23T14:52:04;10.00;1.00
22288;DHT22;11312;51.464;6.968;2024-02-23T14:54:30;9.70;99.90
22288;DHT22;11312;51.464;6.968;2024-02-23T14:56:56;9.70;99.90
22288;DHT22;11312;51.464;6.968;2024-02-23T14:59:21;9.70;99.90
22288;DHT22;11312;51.464;6.968;2024-02-23T15:01:47;9.80;99.90
22288;DHT22;11312;51.464;6.968;2024-02-23T15:04:13;10.10;1.00
22288;DHT22;11312;51.464;6.968;2024-02-23T15:06:38;10.50;1.00
22288;DHT22;11312;51.464;6.968;2024-02-23T15:09:04;10.60;1.00
22288;DHT22;11312;51.464;6.968;2024-02-23T15:11:31;10.30;1.00
22288;DHT22;11312;51.464;6.968;2024-02-23T15:13:56;10.70;99.90
22288;DHT22;11312;51.464;6.968;2024-02-23T15:16:29;10.30;14.80
22288;DHT22;11312;51.464;6.968;2024-02-23T15:18:57;9.80;1.00
22288;DHT22;11312;51.464;6.968;2024-02-23T15:21:24;9.30;1.00
22288;DHT22;11312;51.464;6.968;2024-02-23T15:23:50;9.00;1.00
22288;DHT22;11312;51.464;6.968;2024-02-23T15:26:16;9.00;1.00
22288;DHT22;11312;51.464;6.968;2024-02-23T15:28:41;9.00;99.90
22288;DHT22;11312;51.464;6.968;2024-02-23T15:31:07;8.80;99.90
22288;DHT22;11312;51.464;6.968;2024-02-23T15:33:33;8.80;1.00
22288;DHT22;11312;51.464;6.968;2024-02-23T15:36:01;8.70;1.00
22288;DHT22;11312;51.464;6.968;2024-02-23T15:38:30;8.70;1.00
22288;DHT22;11312;51.464;6.968;2024-02-23T15:40:55;8.60;1.00
22288;DHT22;11312;51.464;6.968;2024-02-23T15:43:21;8.60;1.00
22288;DHT22;11312;51.464;6.968;2024-02-23T15:45:47;8.60;1.00
22288;DHT22;11312;51.464;6.968;2024-02-23T15:48:13;8.40;1.00